This is the latest recevied weather packets stored in our database for station/object HS1WDC-1. If no packets are shown the sender has not sent any weather packets the latest 10 day(s).
| Time | Temp. | Humidity | Pressure | Rain* | Wind** | Luminosity | Snow |
|---|---|---|---|---|---|---|---|
| 1778300869 | 35° C | 62% | 1010 hPa | - | - | 0 W/m² | - |
| 1778299944 | 34.44° C | 65% | 1010 hPa | - | - | 0 W/m² | - |
| 1778299020 | 33.89° C | 67% | 1011 hPa | - | - | 0 W/m² | - |
| 1778298095 | 33.33° C | 68% | 1011 hPa | - | - | 0 W/m² | - |
| 1778297171 | 33.33° C | 69% | 1011 hPa | - | - | 0 W/m² | - |
| 1778296247 | 33.33° C | 68% | 1011 hPa | - | - | 0 W/m² | - |
| 1778295323 | 33.33° C | 69% | 1011 hPa | - | - | 0 W/m² | - |
| 1778294398 | 33.33° C | 69% | 1011 hPa | - | - | 0 W/m² | - |
| 1778293474 | 32.78° C | 69% | 1011 hPa | - | - | 0 W/m² | - |
| 1778292550 | 32.78° C | 67% | 1011 hPa | - | - | 0 W/m² | - |
| 1778291626 | 32.78° C | 67% | 1011 hPa | - | - | 0 W/m² | - |
| 1778290701 | 32.78° C | 67% | 1011 hPa | - | - | 0 W/m² | - |
| 1778289777 | 32.78° C | 68% | 1011 hPa | - | - | 0 W/m² | - |
| 1778288852 | 32.22° C | 69% | 1011 hPa | - | - | 0 W/m² | - |
| 1778287928 | 32.22° C | 69% | 1011 hPa | - | - | 0 W/m² | - |
| 1778287004 | 32.22° C | 70% | 1011 hPa | - | - | 0 W/m² | - |
| 1778286080 | 32.78° C | 69% | 1011 hPa | - | - | 0 W/m² | - |
| 1778285155 | 32.22° C | 70% | 1011 hPa | - | - | 0 W/m² | - |
| 1778284231 | 32.22° C | 71% | 1010 hPa | - | - | 0 W/m² | - |
| 1778280533 | 31.67° C | 71% | 1009 hPa | - | - | 0 W/m² | - |
| 1778274986 | 32.78° C | 67% | 1008 hPa | - | - | 0 W/m² | - |
| 1778274062 | 31.67° C | 70% | 1008 hPa | - | - | 0 W/m² | - |
| 1778271289 | 31.67° C | 70% | 1007 hPa | - | - | 0 W/m² | - |
| 1778270365 | 32.22° C | 69% | 1007 hPa | - | - | 0 W/m² | - |
| 1778269441 | 31.67° C | 70% | 1008 hPa | - | - | 0 W/m² | - |
* Rain since midnight (hover to see other rain measurements)
** Current wind speed in m/s (hover to see current wind gust speed)